Southgate, MI (48195)

00:24 EDT le 02 avril 2015 (GMT -0400)
Castle and Burns St. | | Change Station
CLOSE
Current Station
Stations météorologiques personnelles
Location: Southgate, MI
Altitude: 580 ft
Stations météo à proximité

Alt. 580 ft 42.21 °N, 83.19 °W | Updated 4 minutes ago

Partiellement nuageux
Partiellement nuageux
43.1 ° F
Paraît 43 ° F
N
3.0
Vent Variable Vent de SSE
Gusts 3.0 mph

Aujourd'hui
Haut(e) -- | Bas -- ° F
--% Risque de précip.
Hier
Haut(e) -- | Bas -- ° F
Precip. -- pouce
7:14 AM 7:59 PM
Lune gibbeuse croissante, 95% visible
Pression 30.01 pouce
Visibilité 8.0 Miles terrestres
Nuages Nuageux 22000 ft
Refroidissement éolien 43 ° F
Point de rosée 37 ° F
Humidité 80%
Précipitations 0.00 pouce
Profondeur de la couche neigeuse Non disponible.
UV 0.0 sur 12
Pollen 5.50 sur 12
Qualité de l'air Non disponible.
Flu Activity Non disponible.
METAR KDTW 020353Z 16004KT 8SM BKN220 04/01 A3000 RMK AO2 SLP162 T00440011

More Conditions Fewer Conditions

Pression 30.01 pouce
Visibilité 8.0 Miles terrestres
Nuages Nuageux 22000 ft
Refroidissement éolien 43 ° F
Point de rosée 37 ° F
Humidité 80%
Précipitations 0.00 pouce
Profondeur de la couche neigeuse Non disponible.
UV 0.0 sur 12
Pollen 5.50 sur 12
Qualité de l'air Non disponible.
Flu Activity Non disponible.
METAR KDTW 020353Z 16004KT 8SM BKN220 04/01 A3000 RMK AO2 SLP162 T00440011

More Conditions Fewer Conditions

10-Day Weather Forecast

Almanac

Astronomie

Apr. 02, 2015 Lever Coucher
Temps réel
Crépuscule civil
Crépuscule nautique
Crépuscule astronomique
Lune
Durée de lumière visible
Longueur du jour
Tomorrow will be .
, % of the Moon is Illuminated

Extrêmes aujourd'hui

State Highs State Lows

Community

WunderPhotos

Upload Photos

1,810,197 Photos téléchargées !

WunderBlogs® & News

Nearby

Qualité de l'air

  Qualité de l'air Indice de la qualité de l'air Polluant
Not available.

Épaisseur de neige

Station Depth Altitude

Activité sismique

Ville Distance Mag. Time & Date
Minimum magnitude displayed is 2.5.

Températures des eaux côtières

Lieu Température

Stations

Stations météo à proximité

Emplacement de la station Température Refroidissement éolien Point de rosée Humidité Vent Precip. Alt. Mise à jour Type